createdAt,value
2019-01-28T00:01:00.517Z,2.20
2019-01-28T00:03:29.204Z,1.92
2019-01-28T00:05:57.780Z,2.20
2019-01-28T00:08:26.416Z,1.87
2019-01-28T00:10:54.994Z,2.10
2019-01-28T00:13:23.638Z,1.93
2019-01-28T00:15:52.465Z,2.08
2019-01-28T00:18:21.142Z,2.53
2019-01-28T00:20:49.743Z,2.57
2019-01-28T00:23:18.340Z,2.70
2019-01-28T00:25:46.966Z,2.20
2019-01-28T00:28:15.581Z,2.87
2019-01-28T00:30:44.216Z,2.83
2019-01-28T00:33:12.820Z,2.20
2019-01-28T00:35:41.417Z,3.07
2019-01-28T00:38:10.006Z,2.50
2019-01-28T00:40:38.606Z,3.17
2019-01-28T00:43:07.186Z,3.90
2019-01-28T00:45:35.775Z,2.67
2019-01-28T00:48:04.661Z,3.43
2019-01-28T00:50:33.256Z,2.77
2019-01-28T00:53:01.899Z,2.30
2019-01-28T00:55:30.494Z,2.00
2019-01-28T00:57:59.080Z,2.27
2019-01-28T01:00:28.419Z,2.67
2019-01-28T01:02:57.061Z,3.00
2019-01-28T01:05:25.739Z,1.93
2019-01-28T01:07:54.381Z,2.20
2019-01-28T01:10:22.955Z,2.10
2019-01-28T01:12:51.597Z,2.30
2019-01-28T01:15:20.259Z,2.30
2019-01-28T01:17:49.216Z,2.13
2019-01-28T01:20:17.836Z,1.80
2019-01-28T01:22:46.440Z,1.80
2019-01-28T01:25:15.217Z,1.77
2019-01-28T01:27:43.847Z,2.10
2019-01-28T01:30:14.776Z,1.60
2019-01-28T01:32:43.354Z,2.23
2019-01-28T01:35:11.928Z,2.13
2019-01-28T01:37:40.553Z,2.67
2019-01-28T01:40:11.731Z,1.73
2019-01-28T01:42:40.343Z,1.40
2019-01-28T01:45:10.433Z,1.50
2019-01-28T01:47:39.067Z,1.53
2019-01-28T01:50:08.634Z,1.73
2019-01-28T01:52:37.190Z,2.03
2019-01-28T01:55:06.643Z,1.90
2019-01-28T01:57:35.263Z,1.67
2019-01-28T02:00:05.584Z,2.70
2019-01-28T02:02:34.180Z,2.20
2019-01-28T02:05:02.795Z,1.60
2019-01-28T02:07:31.403Z,1.57
2019-01-28T02:09:59.994Z,1.50
2019-01-28T02:12:28.685Z,1.30
2019-01-28T02:14:57.259Z,1.10
2019-01-28T02:17:25.945Z,0.90
2019-01-28T02:19:54.525Z,1.00
2019-01-28T02:22:23.109Z,0.90
2019-01-28T02:24:51.744Z,0.97
2019-01-28T02:27:20.327Z,1.00
2019-01-28T02:29:48.968Z,1.10
2019-01-28T02:32:17.550Z,1.03
2019-01-28T02:34:46.152Z,0.80
2019-01-28T02:37:14.723Z,1.00
2019-01-28T02:39:43.318Z,1.00
2019-01-28T02:42:11.907Z,0.73
2019-01-28T02:44:40.486Z,0.90
2019-01-28T02:47:09.046Z,1.03
2019-01-28T02:49:38.351Z,1.00
2019-01-28T02:52:07.027Z,1.10
2019-01-28T02:54:35.577Z,0.77
2019-01-28T02:57:04.148Z,1.00
2019-01-28T02:59:32.740Z,0.90
2019-01-28T03:02:01.317Z,1.43
2019-01-28T03:04:29.956Z,1.00
2019-01-28T03:06:58.564Z,1.13
2019-01-28T03:09:27.171Z,1.30
2019-01-28T03:11:55.783Z,1.00
2019-01-28T03:14:24.497Z,1.00
2019-01-28T03:16:54.750Z,1.03
2019-01-28T03:19:23.391Z,1.03
2019-01-28T03:21:52.035Z,0.90
2019-01-28T03:24:20.625Z,0.80
2019-01-28T03:26:49.204Z,1.00
2019-01-28T03:29:17.791Z,1.00
2019-01-28T03:31:46.507Z,0.80
2019-01-28T03:34:15.126Z,1.00
2019-01-28T03:36:43.720Z,0.90
2019-01-28T03:39:12.373Z,0.70
2019-01-28T03:41:42.506Z,0.80
2019-01-28T03:44:11.079Z,0.80
2019-01-28T03:46:39.719Z,0.60
2019-01-28T03:49:08.319Z,0.75
2019-01-28T03:51:36.934Z,0.70
2019-01-28T03:54:05.545Z,0.70
2019-01-28T03:56:34.137Z,0.60
2019-01-28T03:59:02.897Z,0.50
2019-01-28T04:01:31.513Z,0.77
2019-01-28T04:04:00.126Z,0.40
2019-01-28T04:06:28.766Z,0.60
2019-01-28T04:08:57.416Z,0.60
2019-01-28T04:11:26.107Z,0.43
2019-01-28T04:13:54.706Z,0.50
2019-01-28T04:16:23.296Z,0.50
2019-01-28T04:18:51.969Z,0.40
2019-01-28T04:21:20.725Z,0.40
2019-01-28T04:23:49.255Z,0.47
2019-01-28T04:26:21.566Z,0.50
2019-01-28T04:28:50.411Z,0.60
2019-01-28T04:31:19.002Z,0.47
2019-01-28T04:33:47.635Z,0.50
2019-01-28T04:36:16.260Z,0.30
2019-01-28T04:38:44.864Z,0.40
2019-01-28T04:41:14.404Z,0.73
2019-01-28T04:43:43.421Z,0.40
2019-01-28T04:46:12.183Z,0.57
2019-01-28T04:48:40.996Z,0.30
2019-01-28T04:51:09.651Z,0.40
2019-01-28T04:53:38.296Z,0.40
2019-01-28T04:56:06.976Z,0.40
2019-01-28T04:58:35.657Z,0.40
2019-01-28T05:01:04.259Z,0.40
2019-01-28T05:03:32.945Z,0.60
2019-01-28T05:06:01.585Z,0.50
2019-01-28T05:08:30.184Z,0.60
2019-01-28T05:10:58.809Z,0.40
2019-01-28T05:13:27.487Z,0.60
2019-01-28T05:15:56.093Z,0.43
2019-01-28T05:18:24.953Z,0.40
2019-01-28T05:20:54.506Z,0.50
2019-01-28T05:23:23.093Z,0.40
2019-01-28T05:25:51.759Z,0.50
2019-01-28T05:28:20.384Z,0.40
2019-01-28T05:30:49.051Z,0.60
2019-01-28T05:33:17.671Z,0.60
2019-01-28T05:35:46.273Z,0.60
2019-01-28T05:38:14.898Z,0.40
2019-01-28T05:40:43.524Z,0.40
2019-01-28T05:43:12.160Z,0.40
2019-01-28T05:45:40.827Z,0.50
2019-01-28T05:48:09.430Z,0.50
2019-01-28T05:50:38.020Z,0.60
2019-01-28T05:53:06.667Z,0.40
2019-01-28T05:55:35.318Z,0.60
2019-01-28T05:58:03.934Z,0.40
2019-01-28T06:00:39.384Z,0.33
2019-01-28T06:03:08.003Z,0.50
2019-01-28T06:05:36.598Z,0.70
2019-01-28T06:08:05.465Z,0.53
2019-01-28T06:10:34.215Z,0.77
2019-01-28T06:13:02.789Z,1.00
2019-01-28T06:15:31.462Z,0.80
2019-01-28T06:18:00.045Z,0.70
2019-01-28T06:20:28.695Z,0.90
2019-01-28T06:22:57.317Z,0.77
2019-01-28T06:25:25.945Z,0.50
2019-01-28T06:27:54.536Z,0.90
2019-01-28T06:30:30.823Z,1.10
2019-01-28T06:32:59.428Z,0.70
2019-01-28T06:35:28.059Z,0.90
2019-01-28T06:37:56.646Z,0.70
2019-01-28T06:40:27.582Z,0.60
2019-01-28T06:42:56.145Z,0.83
2019-01-28T06:45:24.838Z,0.50
2019-01-28T06:47:53.430Z,0.80
2019-01-28T06:50:22.049Z,0.80
2019-01-28T06:52:50.660Z,0.90
2019-01-28T06:55:19.269Z,1.50
2019-01-28T06:57:48.184Z,0.73
2019-01-28T07:00:22.478Z,0.70
2019-01-28T07:02:51.160Z,0.90
2019-01-28T07:05:19.755Z,0.60
2019-01-28T07:07:48.429Z,0.80
2019-01-28T07:10:17.284Z,0.83
2019-01-28T07:12:45.914Z,1.20
2019-01-28T07:15:14.595Z,0.80
2019-01-28T07:17:43.186Z,1.13
2019-01-28T07:20:15.302Z,0.67
2019-01-28T07:22:43.894Z,0.93
2019-01-28T07:25:12.476Z,1.10
2019-01-28T07:27:41.115Z,1.53
2019-01-28T07:30:12.856Z,0.90
2019-01-28T07:32:41.466Z,0.90
2019-01-28T07:35:10.692Z,0.80
2019-01-28T07:37:39.267Z,1.10
2019-01-28T07:40:08.756Z,0.90
2019-01-28T07:42:37.359Z,0.70
2019-01-28T07:45:08.525Z,0.70
2019-01-28T07:47:37.129Z,0.73
2019-01-28T07:50:05.888Z,0.97
2019-01-28T07:52:34.484Z,0.90
2019-01-28T07:55:03.176Z,0.50
2019-01-28T07:57:31.727Z,0.80
2019-01-28T08:00:00.392Z,0.70
2019-01-28T08:02:29.065Z,0.77
2019-01-28T08:04:57.685Z,0.70
2019-01-28T08:07:26.273Z,0.77
2019-01-28T08:09:54.894Z,1.00
2019-01-28T08:12:23.525Z,0.62
2019-01-28T08:14:52.179Z,0.80
2019-01-28T08:17:20.777Z,0.67
2019-01-28T08:19:49.361Z,1.03
2019-01-28T08:22:18.084Z,0.80
2019-01-28T08:24:46.691Z,1.33
2019-01-28T08:27:15.379Z,1.10
2019-01-28T08:29:43.996Z,1.00
2019-01-28T08:32:12.631Z,0.87
2019-01-28T08:34:41.189Z,1.47
2019-01-28T08:37:09.747Z,1.27
2019-01-28T08:39:38.417Z,1.20
2019-01-28T08:42:07.078Z,0.93
2019-01-28T08:44:36.046Z,1.27
2019-01-28T08:47:04.686Z,1.57
2019-01-28T08:49:33.344Z,1.20
2019-01-28T08:52:01.978Z,1.57
2019-01-28T08:54:30.568Z,1.13
2019-01-28T08:56:59.241Z,1.50
2019-01-28T08:59:27.840Z,1.40
2019-01-28T09:01:56.436Z,1.63
2019-01-28T09:04:25.046Z,1.47
2019-01-28T09:06:53.730Z,1.60
2019-01-28T09:09:22.415Z,1.20
2019-01-28T09:11:51.014Z,1.77
2019-01-28T09:14:19.635Z,2.10
2019-01-28T09:16:48.261Z,1.00
2019-01-28T09:19:16.891Z,1.57
2019-01-28T09:21:45.531Z,1.30
2019-01-28T09:24:14.177Z,1.10
2019-01-28T09:26:42.754Z,0.77
2019-01-28T09:29:11.423Z,1.30
2019-01-28T09:31:40.021Z,1.17
2019-01-28T09:34:08.648Z,1.23
2019-01-28T09:36:37.335Z,1.20
2019-01-28T09:39:07.983Z,1.60
2019-01-28T09:41:36.572Z,1.00
2019-01-28T09:44:05.448Z,0.90
2019-01-28T09:46:34.137Z,0.83
2019-01-28T09:49:02.795Z,1.23
2019-01-28T09:51:34.115Z,1.00
2019-01-28T09:54:02.854Z,0.70
2019-01-28T09:56:31.491Z,1.23
2019-01-28T09:59:00.071Z,0.77
2019-01-28T10:01:29.715Z,1.47
2019-01-28T10:03:58.399Z,0.90
2019-01-28T10:06:27.209Z,1.20
2019-01-28T10:08:55.884Z,0.80
2019-01-28T10:11:24.466Z,1.17
2019-01-28T10:13:53.183Z,1.10
2019-01-28T10:16:21.812Z,0.80
2019-01-28T10:18:50.487Z,0.93
2019-01-28T10:21:19.093Z,1.07
2019-01-28T10:23:47.803Z,1.00
2019-01-28T10:26:16.669Z,1.00
2019-01-28T10:28:45.338Z,0.83
2019-01-28T10:31:13.942Z,1.20
2019-01-28T10:33:42.607Z,1.00
2019-01-28T10:36:11.197Z,0.90
2019-01-28T10:38:40.185Z,1.00
2019-01-28T10:41:08.742Z,0.83
2019-01-28T10:43:37.503Z,0.80
2019-01-28T10:46:06.097Z,1.10
2019-01-28T10:48:34.680Z,0.63
2019-01-28T10:51:04.486Z,0.83
2019-01-28T10:53:33.085Z,0.87
2019-01-28T10:56:01.708Z,1.43
2019-01-28T10:58:30.340Z,1.40
2019-01-28T11:00:58.982Z,1.00
2019-01-28T11:03:27.682Z,1.10
2019-01-28T11:05:56.248Z,0.87
2019-01-28T11:08:25.092Z,0.90
2019-01-28T11:10:53.689Z,0.87
2019-01-28T11:13:22.261Z,1.10
2019-01-28T11:15:50.907Z,0.83
2019-01-28T11:18:25.361Z,1.13
2019-01-28T11:20:54.032Z,0.57
2019-01-28T11:23:23.239Z,0.53
2019-01-28T11:25:51.873Z,0.73
2019-01-28T11:28:20.776Z,0.80
2019-01-28T11:30:57.669Z,0.42
2019-01-28T11:33:26.467Z,0.63
2019-01-28T11:35:55.194Z,0.60
2019-01-28T11:38:24.088Z,0.60
2019-01-28T11:40:52.729Z,0.70
2019-01-28T11:43:21.571Z,0.50
2019-01-28T11:45:59.066Z,0.83
2019-01-28T11:48:27.802Z,0.80
2019-01-28T11:50:56.498Z,0.80
2019-01-28T11:53:25.089Z,0.70
2019-01-28T11:55:53.717Z,0.60
2019-01-28T11:58:22.422Z,0.70
2019-01-28T12:00:59.849Z,0.40
2019-01-28T12:03:28.467Z,0.40
2019-01-28T12:05:57.072Z,0.40
2019-01-28T12:08:25.723Z,0.40
2019-01-28T12:10:54.505Z,0.60
2019-01-28T12:13:23.109Z,0.20
2019-01-28T12:15:51.691Z,0.40
2019-01-28T12:18:20.376Z,0.40
2019-01-28T12:20:53.600Z,0.37
2019-01-28T12:23:19.370Z,0.60
2019-01-28T12:25:48.678Z,0.20
2019-01-28T12:28:17.384Z,0.20
2019-01-28T12:30:47.630Z,0.20
2019-01-28T12:33:16.714Z,0.30
2019-01-28T12:35:45.665Z,0.20
2019-01-28T12:38:14.284Z,0.40
2019-01-28T12:40:42.903Z,0.47
2019-01-28T12:43:11.573Z,0.40
2019-01-28T12:45:40.196Z,0.20
2019-01-28T12:48:08.840Z,0.20
2019-01-28T12:50:37.493Z,0.30
2019-01-28T12:53:06.120Z,0.20
2019-01-28T12:55:34.747Z,0.33
2019-01-28T12:58:03.372Z,0.37
2019-01-28T13:00:37.829Z,0.30
2019-01-28T13:03:06.568Z,0.30
2019-01-28T13:05:35.607Z,0.43
2019-01-28T13:08:04.438Z,0.43
2019-01-28T13:10:33.185Z,0.50
2019-01-28T13:13:01.821Z,0.30
2019-01-28T13:15:30.488Z,0.40
2019-01-28T13:17:59.054Z,0.60
2019-01-28T13:20:27.816Z,0.33
2019-01-28T13:22:56.779Z,1.00
2019-01-28T13:25:26.205Z,0.30
2019-01-28T13:27:54.774Z,0.40
2019-01-28T13:30:25.779Z,0.50
2019-01-28T13:32:54.809Z,0.50
2019-01-28T13:35:23.610Z,0.30
2019-01-28T13:37:52.255Z,0.30
2019-01-28T13:40:21.195Z,0.50
2019-01-28T13:42:49.777Z,0.20
2019-01-28T13:45:19.187Z,0.50
2019-01-28T13:47:48.025Z,0.50
2019-01-28T13:50:19.029Z,0.47
2019-01-28T13:52:49.773Z,0.63
2019-01-28T13:55:18.660Z,0.30
2019-01-28T13:57:47.242Z,0.20
2019-01-28T14:00:19.065Z,0.10
2019-01-28T14:02:48.036Z,0.60
2019-01-28T14:05:16.586Z,0.60
2019-01-28T14:07:45.226Z,0.50
2019-01-28T14:10:14.522Z,0.70
2019-01-28T14:12:43.146Z,0.30
2019-01-28T14:15:15.689Z,0.57
2019-01-28T14:17:44.289Z,0.20
2019-01-28T14:20:14.963Z,0.60
2019-01-28T14:22:43.924Z,0.60
2019-01-28T14:25:14.239Z,0.20
2019-01-28T14:27:43.399Z,0.37
2019-01-28T14:30:19.044Z,0.30
2019-01-28T14:32:47.740Z,0.80
2019-01-28T14:35:16.753Z,0.33
2019-01-28T14:37:45.312Z,0.60
2019-01-28T14:40:16.359Z,0.50
2019-01-28T14:42:45.051Z,0.50
2019-01-28T14:45:14.057Z,0.37
2019-01-28T14:47:42.731Z,0.40
2019-01-28T14:50:17.840Z,0.50
2019-01-28T14:52:46.544Z,0.40
2019-01-28T14:55:15.187Z,1.20
2019-01-28T14:57:43.768Z,0.73
2019-01-28T15:00:13.534Z,0.60
2019-01-28T15:02:42.589Z,0.40
2019-01-28T15:05:11.527Z,0.30
2019-01-28T15:07:40.237Z,0.67
2019-01-28T15:10:11.465Z,0.63
2019-01-28T15:12:44.421Z,0.30
2019-01-28T15:15:13.042Z,0.60
2019-01-28T15:17:41.648Z,0.63
2019-01-28T15:20:10.390Z,0.43
2019-01-28T15:22:38.989Z,0.60
2019-01-28T15:25:08.721Z,0.70
2019-01-28T15:27:37.300Z,0.50
2019-01-28T15:30:08.240Z,0.70
2019-01-28T15:32:37.312Z,0.40
2019-01-28T15:35:06.026Z,0.90
2019-01-28T15:37:34.683Z,2.50
2019-01-28T15:40:03.318Z,0.73
2019-01-28T15:42:31.944Z,0.60
2019-01-28T15:45:00.533Z,0.80
2019-01-28T15:47:29.173Z,1.37
2019-01-28T15:49:57.757Z,0.87
2019-01-28T15:52:26.373Z,1.03
2019-01-28T15:54:55.021Z,0.70
2019-01-28T15:57:23.736Z,1.00
2019-01-28T15:59:52.417Z,1.07
2019-01-28T16:02:21.128Z,0.70
2019-01-28T16:04:51.252Z,1.23
2019-01-28T16:07:19.924Z,0.77
2019-01-28T16:09:48.549Z,0.90
2019-01-28T16:12:17.159Z,1.00
2019-01-28T16:14:45.806Z,1.03
2019-01-28T16:17:14.491Z,0.90
2019-01-28T16:19:43.076Z,0.70
2019-01-28T16:22:11.827Z,1.87
2019-01-28T16:24:40.503Z,1.03
2019-01-28T16:27:09.202Z,0.83
2019-01-28T16:29:38.121Z,1.10
2019-01-28T16:32:06.787Z,0.83
2019-01-28T16:34:35.477Z,1.43
2019-01-28T16:37:04.090Z,1.10
2019-01-28T16:39:32.715Z,0.67
2019-01-28T16:42:01.365Z,0.73
2019-01-28T16:44:30.046Z,1.43
2019-01-28T16:46:58.669Z,1.23
2019-01-28T16:49:27.319Z,1.27
2019-01-28T16:51:56.004Z,1.07
2019-01-28T16:54:25.129Z,1.10
2019-01-28T16:56:57.307Z,1.57
2019-01-28T16:59:26.697Z,2.22
2019-01-28T17:01:55.319Z,1.60
2019-01-28T17:04:24.164Z,1.07
2019-01-28T17:06:53.013Z,1.87
2019-01-28T17:09:21.824Z,2.10
2019-01-28T17:11:50.463Z,2.47
2019-01-28T17:14:21.952Z,2.10
2019-01-28T17:16:50.617Z,1.83
2019-01-28T17:19:22.052Z,1.33
2019-01-28T17:21:50.778Z,1.73
2019-01-28T17:24:19.350Z,1.93
2019-01-28T17:26:48.151Z,1.57
2019-01-28T17:29:16.968Z,1.53
2019-01-28T17:31:45.739Z,2.33
2019-01-28T17:34:14.429Z,1.43
2019-01-28T17:36:43.164Z,2.77
2019-01-28T17:39:12.004Z,1.67
2019-01-28T17:41:40.870Z,2.33
2019-01-28T17:44:09.558Z,2.73
2019-01-28T17:46:38.280Z,3.40
2019-01-28T17:49:09.740Z,3.80
2019-01-28T17:51:38.330Z,2.63
2019-01-28T17:54:07.073Z,4.30
2019-01-28T17:56:36.021Z,3.47
2019-01-28T17:59:04.759Z,2.33
2019-01-28T18:01:33.453Z,2.40
2019-01-28T18:04:02.098Z,3.43
2019-01-28T18:06:30.975Z,2.97
2019-01-28T18:08:59.656Z,2.58
2019-01-28T18:11:28.325Z,3.90
2019-01-28T18:13:57.117Z,3.23
2019-01-28T18:16:25.808Z,2.63
2019-01-28T18:18:54.499Z,1.67
2019-01-28T18:21:23.469Z,2.90
2019-01-28T18:23:53.690Z,2.70
2019-01-28T18:26:22.440Z,2.83
2019-01-28T18:28:51.768Z,2.52
2019-01-28T18:31:21.592Z,2.80
2019-01-28T18:33:50.241Z,4.30
2019-01-28T18:36:21.914Z,3.83
2019-01-28T18:38:50.532Z,2.70
2019-01-28T18:41:19.135Z,3.00
2019-01-28T18:43:47.728Z,3.33
2019-01-28T18:46:16.403Z,3.77
2019-01-28T18:48:45.038Z,2.63
2019-01-28T18:51:13.915Z,1.50
2019-01-28T18:53:42.527Z,2.63
2019-01-28T18:56:11.094Z,2.17
2019-01-28T18:58:39.713Z,1.80
2019-01-28T19:01:08.325Z,1.50
2019-01-28T19:03:37.521Z,2.30
2019-01-28T19:06:32.648Z,1.67
2019-01-28T19:09:17.770Z,1.77
2019-01-28T19:12:20.839Z,1.50
2019-01-28T19:14:56.105Z,2.33
2019-01-28T19:17:50.817Z,3.00
2019-01-28T19:20:40.093Z,3.47
2019-01-28T19:23:08.647Z,4.60
2019-01-28T19:25:37.626Z,5.47
2019-01-28T19:28:06.248Z,7.53
2019-01-28T19:30:34.952Z,2.53
2019-01-28T19:33:03.540Z,2.43
2019-01-28T19:35:32.156Z,2.43
2019-01-28T19:38:00.831Z,2.80
2019-01-28T19:40:29.433Z,1.80
2019-01-28T19:42:58.026Z,1.57
2019-01-28T19:45:26.679Z,1.50
2019-01-28T19:47:55.298Z,2.53
2019-01-28T19:50:24.956Z,1.73
2019-01-28T19:52:53.553Z,3.17
2019-01-28T19:55:22.182Z,1.97
2019-01-28T19:57:50.834Z,2.33
2019-01-28T20:00:21.994Z,1.83
2019-01-28T20:02:50.644Z,1.20
2019-01-28T20:05:19.256Z,2.10
2019-01-28T20:07:48.196Z,1.20
2019-01-28T20:10:16.854Z,1.90
2019-01-28T20:12:45.460Z,0.83
2019-01-28T20:15:15.412Z,1.90
2019-01-28T20:17:43.970Z,2.67
2019-01-28T20:20:13.813Z,3.97
2019-01-28T20:22:42.388Z,1.97
2019-01-28T20:25:11.671Z,2.40
2019-01-28T20:27:40.329Z,2.00
2019-01-28T20:30:20.925Z,2.47
2019-01-28T20:32:49.489Z,2.47
2019-01-28T20:35:18.108Z,2.27
2019-01-28T20:37:46.738Z,2.23
2019-01-28T20:40:15.486Z,2.63
2019-01-28T20:42:44.056Z,2.10
2019-01-28T20:45:14.555Z,1.77
2019-01-28T20:47:43.162Z,2.23
2019-01-28T20:50:14.319Z,1.40
2019-01-28T20:52:42.929Z,1.60
2019-01-28T20:55:11.580Z,2.13
2019-01-28T20:57:40.164Z,1.90
2019-01-28T21:00:15.792Z,1.30
2019-01-28T21:02:44.375Z,1.80
2019-01-28T21:05:14.174Z,2.03
2019-01-28T21:07:42.846Z,3.00
2019-01-28T21:10:12.599Z,2.80
2019-01-28T21:12:41.231Z,2.27
2019-01-28T21:15:11.781Z,1.80
2019-01-28T21:17:40.432Z,1.23
2019-01-28T21:20:11.579Z,2.50
2019-01-28T21:22:40.158Z,1.60
2019-01-28T21:25:11.339Z,2.43
2019-01-28T21:27:39.896Z,2.50
2019-01-28T21:30:10.868Z,1.83
2019-01-28T21:32:39.580Z,2.50
2019-01-28T21:35:09.524Z,3.03
2019-01-28T21:37:46.098Z,2.70
2019-01-28T21:40:15.257Z,2.33
2019-01-28T21:42:43.878Z,2.73
2019-01-28T21:45:13.015Z,2.13
2019-01-28T21:47:53.336Z,2.73
2019-01-28T21:50:23.269Z,2.67
2019-01-28T21:52:51.863Z,2.90
2019-01-28T21:55:20.469Z,3.53
2019-01-28T21:57:49.151Z,5.80
2019-01-28T22:00:17.840Z,3.70
2019-01-28T22:02:46.411Z,3.53
2019-01-28T22:05:14.996Z,4.30
2019-01-28T22:07:43.581Z,4.57
2019-01-28T22:10:12.773Z,3.20
2019-01-28T22:12:41.428Z,4.10
2019-01-28T22:15:12.941Z,3.40
2019-01-28T22:17:41.550Z,3.50
2019-01-28T22:20:10.539Z,3.70
2019-01-28T22:22:39.211Z,3.20
2019-01-28T22:25:09.537Z,3.17
2019-01-28T22:27:38.109Z,3.57
2019-01-28T22:30:09.439Z,2.90
2019-01-28T22:32:38.079Z,3.80
2019-01-28T22:35:07.982Z,2.40
2019-01-28T22:37:36.645Z,3.30
2019-01-28T22:40:06.069Z,2.70
2019-01-28T22:42:34.761Z,2.70
2019-01-28T22:45:03.753Z,3.17
2019-01-28T22:47:32.506Z,3.20
2019-01-28T22:50:01.209Z,4.10
2019-01-28T22:52:29.843Z,4.03
2019-01-28T22:54:58.474Z,5.57
2019-01-28T22:57:27.144Z,3.60
2019-01-28T22:59:55.741Z,3.33
2019-01-28T23:02:24.392Z,3.50
2019-01-28T23:04:53.088Z,2.47
2019-01-28T23:07:21.708Z,2.62
2019-01-28T23:09:50.359Z,3.07
2019-01-28T23:12:18.992Z,3.67
2019-01-28T23:14:47.581Z,2.30
2019-01-28T23:17:16.209Z,2.00
2019-01-28T23:19:44.843Z,2.43
2019-01-28T23:22:16.515Z,2.43
2019-01-28T23:24:43.881Z,2.30
2019-01-28T23:27:12.639Z,1.90
2019-01-28T23:29:41.210Z,1.70
2019-01-28T23:32:09.867Z,1.37
2019-01-28T23:34:38.500Z,1.87
2019-01-28T23:37:07.168Z,0.50
2019-01-28T23:39:35.768Z,1.00
2019-01-28T23:42:04.498Z,2.43
2019-01-28T23:44:33.488Z,1.43
2019-01-28T23:47:02.260Z,1.33
2019-01-28T23:49:30.968Z,1.00
2019-01-28T23:51:59.716Z,1.37
2019-01-28T23:54:28.325Z,1.20
2019-01-28T23:56:57.006Z,1.83
2019-01-28T23:59:25.673Z,1.70
